createdAt,value
2022-12-22T00:54:33.740Z,580.00
2022-12-22T00:55:34.613Z,579.00
2022-12-22T00:56:34.612Z,580.00
2022-12-22T00:57:34.601Z,583.00
2022-12-22T00:58:34.586Z,583.00
2022-12-22T00:59:34.604Z,583.00
2022-12-22T01:00:34.581Z,578.00
2022-12-22T01:01:34.701Z,577.00
2022-12-22T01:02:34.887Z,579.00
2022-12-22T01:03:34.668Z,578.00
2022-12-22T01:04:34.537Z,577.00
2022-12-22T01:05:34.542Z,575.00
2022-12-22T01:06:34.515Z,577.00
2022-12-22T01:07:34.555Z,578.00
2022-12-22T01:08:34.518Z,580.00
2022-12-22T01:09:34.496Z,580.00
2022-12-22T01:10:34.515Z,580.00
2022-12-22T01:11:34.475Z,581.00
2022-12-22T01:12:34.515Z,578.00
2022-12-22T01:13:33.454Z,580.00
2022-12-22T01:14:34.448Z,580.00
2022-12-22T01:15:34.486Z,580.00
2022-12-22T01:16:34.508Z,579.00
2022-12-22T01:17:34.422Z,579.00
2022-12-22T01:18:34.413Z,578.00
2022-12-22T01:19:34.405Z,577.00
2022-12-22T01:20:34.394Z,577.00
2022-12-22T01:21:34.389Z,577.00
2022-12-22T01:22:34.370Z,574.00
2022-12-22T01:23:34.365Z,575.00
2022-12-22T01:24:34.356Z,577.00
2022-12-22T01:25:34.351Z,577.00
2022-12-22T01:26:34.360Z,578.00
2022-12-22T01:27:34.326Z,577.00
2022-12-22T01:28:34.319Z,578.00
2022-12-22T01:29:34.314Z,577.00
2022-12-22T01:30:34.380Z,576.00
2022-12-22T01:31:34.296Z,574.00
2022-12-22T01:32:34.285Z,574.00
2022-12-22T01:33:34.282Z,574.00
2022-12-22T01:34:34.263Z,572.00
2022-12-22T01:35:34.256Z,573.00
2022-12-22T01:36:34.251Z,573.00
2022-12-22T01:37:34.247Z,573.00
2022-12-22T01:38:34.231Z,573.00
2022-12-22T01:39:34.221Z,574.00
2022-12-22T01:40:34.212Z,576.00
2022-12-22T01:41:34.206Z,575.00
2022-12-22T01:42:34.231Z,575.00
2022-12-22T01:43:34.224Z,574.00
2022-12-22T01:44:34.174Z,571.00
2022-12-22T01:45:34.203Z,573.00
2022-12-22T01:46:34.240Z,575.00
2022-12-22T01:47:34.157Z,575.00
2022-12-22T01:48:34.139Z,576.00
2022-12-22T01:49:34.135Z,577.00
2022-12-22T01:50:34.128Z,574.00
2022-12-22T01:51:34.139Z,573.00
2022-12-22T01:52:34.123Z,573.00
2022-12-22T01:53:34.116Z,574.00
2022-12-22T01:54:34.093Z,574.00
2022-12-22T01:55:34.089Z,574.00
2022-12-22T01:56:34.078Z,571.00
2022-12-22T01:57:34.054Z,570.00
2022-12-22T01:58:34.086Z,568.00
2022-12-22T01:59:34.056Z,568.00
2022-12-22T02:00:34.035Z,566.00
2022-12-22T02:01:34.184Z,567.00
2022-12-22T02:02:34.171Z,564.00
2022-12-22T02:03:34.110Z,565.00
2022-12-22T02:04:33.995Z,568.00
2022-12-22T02:05:33.984Z,568.00
2022-12-22T02:06:33.982Z,567.00
2022-12-22T02:07:33.975Z,565.00
2022-12-22T02:08:33.973Z,567.00
2022-12-22T02:09:33.958Z,568.00
2022-12-22T02:10:33.945Z,569.00
2022-12-22T02:11:33.936Z,567.00
2022-12-22T02:12:33.923Z,566.00
2022-12-22T02:13:33.951Z,566.00
2022-12-22T02:14:33.937Z,566.00
2022-12-22T02:15:33.913Z,567.00
2022-12-22T02:16:33.945Z,567.00
2022-12-22T02:17:33.900Z,566.00
2022-12-22T02:18:33.955Z,566.00
2022-12-22T02:19:33.873Z,565.00
2022-12-22T02:20:33.878Z,567.00
2022-12-22T02:21:33.843Z,566.00
2022-12-22T02:22:33.841Z,565.00
2022-12-22T10:50:29.295Z,635.00
2022-12-22T16:44:05.320Z,517.00
2022-12-22T20:32:27.986Z,516.00
2022-12-22T20:33:24.111Z,519.00
2022-12-22T20:34:24.098Z,521.00
2022-12-22T20:35:24.089Z,521.00
2022-12-22T20:36:24.085Z,519.00
2022-12-22T20:37:24.067Z,520.00
2022-12-22T20:38:24.092Z,519.00
2022-12-22T20:39:24.065Z,521.00
2022-12-22T20:40:24.054Z,522.00
2022-12-22T20:41:24.033Z,523.00
2022-12-22T20:42:24.045Z,524.00
2022-12-22T20:43:24.017Z,523.00
2022-12-22T20:44:24.029Z,524.00
2022-12-22T20:45:24.005Z,526.00
2022-12-22T20:46:24.065Z,526.00
2022-12-22T20:47:23.978Z,523.00
2022-12-22T20:48:23.984Z,523.00
2022-12-22T20:49:23.965Z,522.00
2022-12-22T20:50:23.955Z,520.00
2022-12-22T20:51:23.948Z,520.00
2022-12-22T20:52:23.947Z,522.00
2022-12-22T20:53:23.935Z,521.00
2022-12-22T20:54:23.951Z,518.00
2022-12-22T20:55:23.920Z,518.00
2022-12-22T20:56:23.897Z,517.00
2022-12-22T20:57:23.890Z,517.00
2022-12-22T20:58:23.880Z,516.00
2022-12-22T20:59:23.899Z,517.00
2022-12-22T21:00:23.870Z,516.00
2022-12-22T21:01:23.910Z,516.00
2022-12-22T21:02:24.025Z,517.00
2022-12-22T21:03:23.980Z,518.00
2022-12-22T21:04:23.829Z,519.00
2022-12-22T21:05:23.822Z,520.00
2022-12-22T21:06:23.815Z,521.00
2022-12-22T21:07:23.813Z,524.00
2022-12-22T21:08:23.791Z,525.00
2022-12-22T21:09:23.806Z,526.00
2022-12-22T21:10:23.798Z,527.00
2022-12-22T21:11:23.779Z,527.00
2022-12-22T21:12:23.760Z,524.00
2022-12-22T21:13:23.749Z,522.00
2022-12-22T21:14:23.741Z,521.00
2022-12-22T21:15:23.783Z,522.00
2022-12-22T21:16:23.929Z,522.00
2022-12-22T21:17:23.718Z,523.00
2022-12-22T21:18:23.736Z,526.00
2022-12-22T21:19:23.697Z,525.00
2022-12-22T21:20:23.719Z,527.00
2022-12-22T21:21:23.684Z,526.00
2022-12-22T21:22:23.679Z,526.00
2022-12-22T21:23:23.657Z,523.00
2022-12-22T21:24:23.649Z,524.00
2022-12-22T21:25:23.639Z,524.00
2022-12-22T21:26:23.660Z,523.00
2022-12-22T21:27:23.661Z,523.00
2022-12-22T21:28:23.634Z,525.00
2022-12-22T21:29:23.613Z,525.00
2022-12-22T21:30:23.596Z,525.00
2022-12-22T21:31:23.670Z,524.00
2022-12-22T21:32:23.636Z,522.00
2022-12-22T21:33:23.605Z,522.00
2022-12-22T21:34:23.560Z,524.00
2022-12-22T21:35:23.552Z,527.00
2022-12-22T21:36:23.545Z,525.00
2022-12-22T21:37:23.531Z,524.00
2022-12-22T21:38:23.527Z,524.00
2022-12-22T21:39:23.535Z,525.00
2022-12-22T21:40:23.509Z,526.00
2022-12-22T21:41:23.497Z,526.00
2022-12-22T21:42:23.517Z,525.00
2022-12-22T21:43:23.481Z,525.00
2022-12-22T21:44:23.476Z,526.00
2022-12-22T21:45:23.457Z,528.00
2022-12-22T21:46:23.630Z,531.00
2022-12-22T21:47:23.454Z,532.00
2022-12-22T21:48:23.439Z,529.00
2022-12-22T21:49:23.432Z,528.00
2022-12-22T21:50:23.420Z,525.00
2022-12-22T21:51:23.414Z,521.00
2022-12-22T21:52:23.400Z,521.00
2022-12-22T21:53:23.388Z,522.00
2022-12-22T21:54:23.401Z,522.00
2022-12-22T21:55:23.382Z,522.00
2022-12-22T21:56:23.365Z,521.00
2022-12-22T21:57:23.357Z,521.00
2022-12-22T21:58:23.375Z,526.00
2022-12-22T21:59:23.338Z,528.00
2022-12-22T22:00:23.331Z,530.00
2022-12-22T22:01:23.358Z,528.00
2022-12-22T22:02:23.487Z,524.00
2022-12-22T22:03:23.314Z,524.00
2022-12-22T22:04:23.305Z,523.00
2022-12-22T22:05:23.293Z,522.00
2022-12-22T22:06:23.276Z,523.00
2022-12-22T22:07:23.286Z,523.00
2022-12-22T22:08:23.259Z,525.00
2022-12-22T22:09:23.252Z,526.00
2022-12-22T22:10:23.239Z,526.00
2022-12-22T22:11:23.237Z,524.00
2022-12-22T22:12:28.102Z,526.00
2022-12-22T22:13:23.211Z,524.00
2022-12-22T22:14:23.221Z,523.00
2022-12-22T22:15:23.192Z,524.00
2022-12-22T22:16:23.231Z,521.00
2022-12-22T22:17:23.182Z,519.00
2022-12-22T22:18:23.179Z,519.00
2022-12-22T22:19:23.179Z,518.00
2022-12-22T22:20:23.156Z,517.00
2022-12-22T22:21:23.142Z,517.00
2022-12-22T22:22:23.138Z,516.00
2022-12-22T22:23:23.121Z,516.00
2022-12-22T22:24:23.113Z,520.00
2022-12-22T22:25:23.105Z,519.00
2022-12-22T22:26:23.104Z,519.00
2022-12-22T22:27:23.121Z,520.00
2022-12-22T22:28:23.077Z,518.00
2022-12-22T22:29:23.075Z,520.00
2022-12-22T22:30:23.088Z,519.00
2022-12-22T22:31:23.097Z,522.00
2022-12-22T22:32:23.078Z,522.00
2022-12-22T22:33:23.039Z,520.00
2022-12-22T22:34:23.027Z,522.00
2022-12-22T22:35:23.012Z,522.00
2022-12-22T22:36:23.031Z,523.00
2022-12-22T22:37:23.031Z,526.00
2022-12-22T22:38:23.077Z,524.00
2022-12-22T22:39:22.986Z,524.00
2022-12-22T22:40:22.976Z,522.00
2022-12-22T22:41:22.969Z,518.00
2022-12-22T22:42:22.961Z,521.00
2022-12-22T22:43:22.943Z,525.00
2022-12-22T22:44:22.936Z,524.00
2022-12-22T22:45:23.062Z,521.00
2022-12-22T22:46:23.017Z,524.00
2022-12-22T22:47:22.911Z,524.00
2022-12-22T22:48:22.907Z,523.00
2022-12-22T22:49:28.359Z,524.00
2022-12-22T22:50:22.889Z,526.00
2022-12-22T22:51:22.884Z,522.00
2022-12-22T22:52:22.861Z,521.00
2022-12-22T22:53:22.858Z,523.00
2022-12-22T22:54:22.843Z,524.00
2022-12-22T22:55:22.849Z,525.00
2022-12-22T22:56:22.841Z,527.00
2022-12-22T22:57:22.817Z,527.00
2022-12-22T22:58:22.819Z,528.00
2022-12-22T22:59:22.803Z,530.00
2022-12-22T23:00:22.810Z,527.00
2022-12-22T23:01:22.787Z,524.00
2022-12-22T23:02:23.045Z,523.00
2022-12-22T23:03:22.864Z,524.00
2022-12-22T23:04:22.879Z,525.00
2022-12-22T23:05:23.306Z,525.00
2022-12-22T23:06:22.739Z,523.00
2022-12-22T23:07:22.729Z,522.00
2022-12-22T23:08:22.719Z,522.00
2022-12-22T23:09:22.723Z,521.00
2022-12-22T23:10:22.703Z,518.00
2022-12-22T23:11:22.703Z,518.00
2022-12-22T23:12:22.688Z,517.00
2022-12-22T23:13:22.672Z,518.00
2022-12-22T23:14:22.691Z,521.00
2022-12-22T23:15:22.657Z,520.00
2022-12-22T23:16:22.709Z,519.00
2022-12-22T23:17:22.649Z,521.00
2022-12-22T23:18:22.662Z,523.00
2022-12-22T23:19:22.620Z,525.00
2022-12-22T23:20:22.614Z,526.00
2022-12-22T23:21:22.614Z,525.00
2022-12-22T23:22:22.598Z,527.00
2022-12-22T23:23:22.600Z,529.00
2022-12-22T23:24:22.593Z,530.00
2022-12-22T23:25:22.578Z,531.00
2022-12-22T23:26:22.586Z,529.00
2022-12-22T23:27:22.547Z,527.00
2022-12-22T23:28:22.540Z,529.00
2022-12-22T23:29:22.541Z,527.00
2022-12-22T23:30:22.536Z,528.00
2022-12-22T23:31:22.590Z,528.00
2022-12-22T23:32:22.508Z,532.00
2022-12-22T23:33:22.511Z,532.00
2022-12-22T23:34:22.525Z,531.00
2022-12-22T23:35:22.476Z,532.00
2022-12-22T23:36:22.470Z,533.00
2022-12-22T23:37:22.462Z,532.00
2022-12-22T23:38:22.458Z,531.00
2022-12-22T23:39:22.467Z,530.00
2022-12-22T23:40:50.959Z,529.00
2022-12-22T23:41:22.429Z,529.00
2022-12-22T23:42:22.415Z,529.00
2022-12-22T23:43:22.547Z,529.00
2022-12-22T23:44:22.403Z,527.00
2022-12-22T23:45:22.393Z,527.00
2022-12-22T23:46:22.437Z,526.00
2022-12-22T23:47:22.414Z,527.00
2022-12-22T23:48:22.370Z,524.00
2022-12-22T23:49:22.357Z,523.00
2022-12-22T23:50:22.378Z,523.00
2022-12-22T23:51:22.340Z,524.00
2022-12-22T23:52:22.339Z,526.00
2022-12-22T23:53:22.361Z,527.00
2022-12-22T23:54:22.311Z,525.00
2022-12-22T23:55:22.324Z,525.00
2022-12-22T23:56:22.324Z,522.00
2022-12-22T23:57:22.284Z,520.00
2022-12-22T23:58:22.271Z,522.00
2022-12-22T23:59:22.262Z,521.00
